Aviation Digital Data Service (ADDS)

Output produced by METARs form (1445 UTC 24 August 2019)
found at http://www.aviationweather.gov/metar/data/
 
Forecast for: RJCC (CHITOSE (JASDF/C, JP)
Text: TAF RJCC 241107Z 2412/2518 33006KT 9999 FEW015 BKN035
Forecast period: 1200 UTC 24 August 2019 to 0000 UTC 25 August 2019
Forecast type: FROM: standard forecast or significant change
Winds: from the NNW (330 degrees) at 7 MPH (6 knots; 3.1 m/s)
Visibility: 6 or more miles 10+ km)
Ceiling: 3500 feet AGL
Clouds: few clouds at 1500 feet AGL
broken clouds at 3500 feet AGL
Weather: no significant weather forecast for this period
Text: BECMG 2500/2503 34017KT
Forecast period: 0000 to 1200 UTC 25 August 2019
Forecast type: BECOMING: Conditions expected to become as follows by 0300 UTC 25 August 2019
Winds: from the NNW (340 degrees) at 20 MPH (17 knots; 8.7 m/s)
Visibility: 6 or more miles 10+ km)
Ceiling: 3500 feet AGL
Clouds: few clouds at 1500 feet AGL
broken clouds at 3500 feet AGL
Weather: no significant weather forecast for this period
Text: BECMG 2512/2515 33007KT
Forecast period: 1200 to 1800 UTC 25 August 2019
Forecast type: BECOMING: Conditions expected to become as follows by 1500 UTC 25 August 2019
Winds: from the NNW (330 degrees) at 8 MPH (7 knots; 3.6 m/s)
Visibility: 6 or more miles 10+ km)
Ceiling: 3500 feet AGL
Clouds: few clouds at 1500 feet AGL
broken clouds at 3500 feet AGL
Weather: no significant weather forecast for this period